sensor_id;sensor_type;location;lat;lon;timestamp;P1;durP1;ratioP1;P2;durP2;ratioP2
62709;SDS011;48770;51.624;5.886;2023-06-24T00:00:25;4.95;;;3.42;;
62709;SDS011;48770;51.624;5.886;2023-06-24T00:02:51;3.88;;;3.30;;
62709;SDS011;48770;51.624;5.886;2023-06-24T00:05:18;4.07;;;3.75;;
62709;SDS011;48770;51.624;5.886;2023-06-24T00:07:44;4.80;;;3.05;;
62709;SDS011;48770;51.624;5.886;2023-06-24T00:10:11;5.73;;;3.30;;
62709;SDS011;48770;51.624;5.886;2023-06-24T00:12:38;5.80;;;3.70;;
62709;SDS011;48770;51.624;5.886;2023-06-24T00:15:05;4.05;;;3.58;;
62709;SDS011;48770;51.624;5.886;2023-06-24T00:17:31;4.47;;;3.60;;
62709;SDS011;48770;51.624;5.886;2023-06-24T00:19:57;4.93;;;4.03;;
62709;SDS011;48770;51.624;5.886;2023-06-24T00:22:22;4.32;;;3.92;;
62709;SDS011;48770;51.624;5.886;2023-06-24T00:24:47;5.20;;;3.80;;
62709;SDS011;48770;51.624;5.886;2023-06-24T00:27:12;5.00;;;4.07;;
62709;SDS011;48770;51.624;5.886;2023-06-24T00:29:38;7.55;;;3.75;;
62709;SDS011;48770;51.624;5.886;2023-06-24T00:32:03;4.43;;;4.03;;
62709;SDS011;48770;51.624;5.886;2023-06-24T00:34:29;4.43;;;4.00;;
62709;SDS011;48770;51.624;5.886;2023-06-24T00:36:54;3.80;;;3.40;;
62709;SDS011;48770;51.624;5.886;2023-06-24T00:39:20;7.28;;;4.03;;
62709;SDS011;48770;51.624;5.886;2023-06-24T00:41:45;4.32;;;3.70;;
62709;SDS011;48770;51.624;5.886;2023-06-24T00:44:11;4.65;;;3.67;;
62709;SDS011;48770;51.624;5.886;2023-06-24T00:46:37;4.70;;;4.15;;
62709;SDS011;48770;51.624;5.886;2023-06-24T00:49:04;4.63;;;4.22;;
62709;SDS011;48770;51.624;5.886;2023-06-24T00:51:29;4.73;;;4.17;;
62709;SDS011;48770;51.624;5.886;2023-06-24T00:53:56;5.20;;;4.20;;
62709;SDS011;48770;51.624;5.886;2023-06-24T00:56:24;5.85;;;3.95;;
62709;SDS011;48770;51.624;5.886;2023-06-24T00:58:54;5.60;;;4.32;;
62709;SDS011;48770;51.624;5.886;2023-06-24T01:01:22;4.88;;;4.38;;
62709;SDS011;48770;51.624;5.886;2023-06-24T01:03:48;5.00;;;4.50;;
62709;SDS011;48770;51.624;5.886;2023-06-24T01:06:14;4.07;;;3.67;;
62709;SDS011;48770;51.624;5.886;2023-06-24T01:08:40;4.75;;;4.00;;
62709;SDS011;48770;51.624;5.886;2023-06-24T01:11:05;4.30;;;3.90;;
62709;SDS011;48770;51.624;5.886;2023-06-24T01:13:31;4.50;;;4.10;;
62709;SDS011;48770;51.624;5.886;2023-06-24T01:15:57;4.72;;;4.00;;
62709;SDS011;48770;51.624;5.886;2023-06-24T01:18:35;4.53;;;4.00;;
62709;SDS011;48770;51.624;5.886;2023-06-24T01:26:37;4.20;;;3.63;;
62709;SDS011;48770;51.624;5.886;2023-06-24T01:35:00;4.65;;;3.55;;
62709;SDS011;48770;51.624;5.886;2023-06-24T01:37:34;5.05;;;4.05;;
62709;SDS011;48770;51.624;5.886;2023-06-24T01:40:12;4.30;;;3.90;;
62709;SDS011;48770;51.624;5.886;2023-06-24T01:42:45;4.90;;;4.03;;
62709;SDS011;48770;51.624;5.886;2023-06-24T01:45:14;5.18;;;4.45;;
62709;SDS011;48770;51.624;5.886;2023-06-24T01:47:43;5.35;;;4.63;;
62709;SDS011;48770;51.624;5.886;2023-06-24T01:50:11;5.18;;;4.18;;
62709;SDS011;48770;51.624;5.886;2023-06-24T01:52:37;4.40;;;4.00;;
62709;SDS011;48770;51.624;5.886;2023-06-24T01:55:06;6.07;;;4.10;;
62709;SDS011;48770;51.624;5.886;2023-06-24T01:57:34;4.85;;;4.35;;
62709;SDS011;48770;51.624;5.886;2023-06-24T02:00:01;5.97;;;4.72;;
62709;SDS011;48770;51.624;5.886;2023-06-24T02:02:31;7.15;;;4.82;;
62709;SDS011;48770;51.624;5.886;2023-06-24T02:04:58;4.88;;;4.38;;
62709;SDS011;48770;51.624;5.886;2023-06-24T02:07:26;6.70;;;5.20;;
62709;SDS011;48770;51.624;5.886;2023-06-24T02:09:54;4.80;;;4.30;;
62709;SDS011;48770;51.624;5.886;2023-06-24T02:12:20;5.78;;;5.15;;
62709;SDS011;48770;51.624;5.886;2023-06-24T02:14:48;4.75;;;4.25;;
62709;SDS011;48770;51.624;5.886;2023-06-24T02:17:14;7.20;;;4.60;;
62709;SDS011;48770;51.624;5.886;2023-06-24T02:19:40;6.57;;;4.82;;
62709;SDS011;48770;51.624;5.886;2023-06-24T02:22:07;5.15;;;4.35;;
62709;SDS011;48770;51.624;5.886;2023-06-24T02:24:34;5.22;;;4.70;;
62709;SDS011;48770;51.624;5.886;2023-06-24T02:27:02;5.57;;;4.85;;
62709;SDS011;48770;51.624;5.886;2023-06-24T02:29:29;5.43;;;4.93;;
62709;SDS011;48770;51.624;5.886;2023-06-24T02:31:55;4.80;;;4.40;;
62709;SDS011;48770;51.624;5.886;2023-06-24T02:34:22;6.95;;;4.68;;
62709;SDS011;48770;51.624;5.886;2023-06-24T02:36:48;5.07;;;4.57;;
62709;SDS011;48770;51.624;5.886;2023-06-24T02:39:14;5.30;;;4.57;;
62709;SDS011;48770;51.624;5.886;2023-06-24T02:41:39;5.80;;;4.75;;
62709;SDS011;48770;51.624;5.886;2023-06-24T02:44:04;5.35;;;4.55;;
62709;SDS011;48770;51.624;5.886;2023-06-24T02:46:30;5.90;;;4.27;;
62709;SDS011;48770;51.624;5.886;2023-06-24T02:48:58;5.53;;;4.80;;
62709;SDS011;48770;51.624;5.886;2023-06-24T02:51:25;5.65;;;4.95;;
62709;SDS011;48770;51.624;5.886;2023-06-24T02:53:51;6.30;;;4.82;;
62709;SDS011;48770;51.624;5.886;2023-06-24T02:56:17;4.75;;;4.35;;
62709;SDS011;48770;51.624;5.886;2023-06-24T02:58:46;5.75;;;4.47;;
62709;SDS011;48770;51.624;5.886;2023-06-24T03:01:12;7.07;;;5.25;;
62709;SDS011;48770;51.624;5.886;2023-06-24T03:03:39;5.22;;;4.72;;
62709;SDS011;48770;51.624;5.886;2023-06-24T03:06:06;6.07;;;4.93;;
62709;SDS011;48770;51.624;5.886;2023-06-24T03:08:32;5.68;;;4.65;;
62709;SDS011;48770;51.624;5.886;2023-06-24T03:10:57;5.45;;;4.88;;
62709;SDS011;48770;51.624;5.886;2023-06-24T03:13:23;8.23;;;5.65;;
62709;SDS011;48770;51.624;5.886;2023-06-24T03:15:49;5.40;;;4.82;;
62709;SDS011;48770;51.624;5.886;2023-06-24T03:18:15;4.90;;;4.47;;
62709;SDS011;48770;51.624;5.886;2023-06-24T03:20:41;5.32;;;4.82;;
62709;SDS011;48770;51.624;5.886;2023-06-24T03:23:07;5.55;;;4.70;;
62709;SDS011;48770;51.624;5.886;2023-06-24T03:25:33;5.38;;;4.68;;
62709;SDS011;48770;51.624;5.886;2023-06-24T03:27:59;5.50;;;4.97;;
62709;SDS011;48770;51.624;5.886;2023-06-24T03:30:34;7.20;;;5.03;;
62709;SDS011;48770;51.624;5.886;2023-06-24T03:32:59;6.90;;;5.25;;
62709;SDS011;48770;51.624;5.886;2023-06-24T03:35:25;7.22;;;5.00;;
62709;SDS011;48770;51.624;5.886;2023-06-24T03:37:50;6.50;;;5.05;;
62709;SDS011;48770;51.624;5.886;2023-06-24T03:40:16;6.00;;;5.22;;
62709;SDS011;48770;51.624;5.886;2023-06-24T03:42:42;6.32;;;5.38;;
62709;SDS011;48770;51.624;5.886;2023-06-24T03:45:07;6.15;;;5.55;;
62709;SDS011;48770;51.624;5.886;2023-06-24T03:47:33;5.95;;;5.10;;
62709;SDS011;48770;51.624;5.886;2023-06-24T03:49:58;6.85;;;5.47;;
62709;SDS011;48770;51.624;5.886;2023-06-24T03:52:23;5.87;;;5.03;;
62709;SDS011;48770;51.624;5.886;2023-06-24T03:54:50;6.03;;;5.43;;
62709;SDS011;48770;51.624;5.886;2023-06-24T03:57:15;6.28;;;5.68;;
62709;SDS011;48770;51.624;5.886;2023-06-24T03:59:41;6.38;;;5.75;;
62709;SDS011;48770;51.624;5.886;2023-06-24T04:02:06;7.13;;;5.80;;
62709;SDS011;48770;51.624;5.886;2023-06-24T04:04:33;6.13;;;5.53;;
62709;SDS011;48770;51.624;5.886;2023-06-24T04:06:58;7.38;;;5.93;;
62709;SDS011;48770;51.624;5.886;2023-06-24T04:09:24;6.15;;;5.55;;
62709;SDS011;48770;51.624;5.886;2023-06-24T04:11:49;6.93;;;6.25;;
62709;SDS011;48770;51.624;5.886;2023-06-24T04:14:14;9.20;;;6.20;;
62709;SDS011;48770;51.624;5.886;2023-06-24T04:16:39;7.43;;;6.05;;
62709;SDS011;48770;51.624;5.886;2023-06-24T04:19:05;7.57;;;6.70;;
62709;SDS011;48770;51.624;5.886;2023-06-24T04:21:30;7.80;;;6.17;;
62709;SDS011;48770;51.624;5.886;2023-06-24T04:23:55;7.60;;;6.78;;
62709;SDS011;48770;51.624;5.886;2023-06-24T04:26:21;7.23;;;6.50;;
62709;SDS011;48770;51.624;5.886;2023-06-24T04:28:46;8.25;;;6.40;;
62709;SDS011;48770;51.624;5.886;2023-06-24T04:31:11;7.97;;;6.80;;
62709;SDS011;48770;51.624;5.886;2023-06-24T04:33:37;8.63;;;6.97;;
62709;SDS011;48770;51.624;5.886;2023-06-24T04:36:02;8.73;;;7.17;;
62709;SDS011;48770;51.624;5.886;2023-06-24T04:38:30;7.57;;;6.80;;
62709;SDS011;48770;51.624;5.886;2023-06-24T04:40:55;8.00;;;6.70;;
62709;SDS011;48770;51.624;5.886;2023-06-24T04:43:24;9.45;;;7.35;;
62709;SDS011;48770;51.624;5.886;2023-06-24T04:45:49;7.13;;;6.53;;
62709;SDS011;48770;51.624;5.886;2023-06-24T04:48:14;7.95;;;7.15;;
62709;SDS011;48770;51.624;5.886;2023-06-24T04:50:40;9.33;;;7.30;;
62709;SDS011;48770;51.624;5.886;2023-06-24T04:53:05;10.30;;;7.60;;
62709;SDS011;48770;51.624;5.886;2023-06-24T04:55:31;8.10;;;7.30;;
62709;SDS011;48770;51.624;5.886;2023-06-24T04:57:56;7.53;;;6.63;;
62709;SDS011;48770;51.624;5.886;2023-06-24T05:00:21;7.53;;;6.82;;
62709;SDS011;48770;51.624;5.886;2023-06-24T05:02:50;9.98;;;7.60;;
62709;SDS011;48770;51.624;5.886;2023-06-24T05:05:15;8.68;;;7.15;;
62709;SDS011;48770;51.624;5.886;2023-06-24T05:07:41;8.40;;;7.50;;
62709;SDS011;48770;51.624;5.886;2023-06-24T05:10:06;9.00;;;7.87;;
62709;SDS011;48770;51.624;5.886;2023-06-24T05:12:31;9.45;;;7.78;;
62709;SDS011;48770;51.624;5.886;2023-06-24T05:14:57;9.57;;;7.93;;
62709;SDS011;48770;51.624;5.886;2023-06-24T05:17:22;9.50;;;7.00;;
62709;SDS011;48770;51.624;5.886;2023-06-24T05:19:48;8.43;;;7.50;;
62709;SDS011;48770;51.624;5.886;2023-06-24T05:22:13;8.57;;;7.32;;
62709;SDS011;48770;51.624;5.886;2023-06-24T05:24:39;7.53;;;6.18;;
62709;SDS011;48770;51.624;5.886;2023-06-24T05:27:06;8.13;;;6.50;;
62709;SDS011;48770;51.624;5.886;2023-06-24T05:29:32;7.20;;;6.50;;
62709;SDS011;48770;51.624;5.886;2023-06-24T05:31:58;10.57;;;7.15;;
62709;SDS011;48770;51.624;5.886;2023-06-24T05:34:24;8.23;;;7.00;;
62709;SDS011;48770;51.624;5.886;2023-06-24T05:36:49;6.20;;;5.60;;
62709;SDS011;48770;51.624;5.886;2023-06-24T05:39:14;6.65;;;5.90;;
62709;SDS011;48770;51.624;5.886;2023-06-24T05:41:39;7.50;;;5.67;;
62709;SDS011;48770;51.624;5.886;2023-06-24T05:44:08;7.60;;;4.90;;
62709;SDS011;48770;51.624;5.886;2023-06-24T05:46:35;5.45;;;4.90;;
62709;SDS011;48770;51.624;5.886;2023-06-24T05:49:01;5.30;;;4.32;;
62709;SDS011;48770;51.624;5.886;2023-06-24T05:51:26;6.55;;;4.07;;
62709;SDS011;48770;51.624;5.886;2023-06-24T05:53:52;4.53;;;3.95;;
62709;SDS011;48770;51.624;5.886;2023-06-24T05:56:17;6.25;;;3.90;;
62709;SDS011;48770;51.624;5.886;2023-06-24T05:58:43;4.30;;;3.83;;
62709;SDS011;48770;51.624;5.886;2023-06-24T06:01:11;6.50;;;3.75;;
62709;SDS011;48770;51.624;5.886;2023-06-24T06:03:37;4.47;;;3.70;;
62709;SDS011;48770;51.624;5.886;2023-06-24T06:06:02;5.88;;;3.17;;
62709;SDS011;48770;51.624;5.886;2023-06-24T06:08:28;3.67;;;3.38;;
62709;SDS011;48770;51.624;5.886;2023-06-24T06:10:53;3.90;;;3.45;;
62709;SDS011;48770;51.624;5.886;2023-06-24T06:13:18;4.67;;;3.73;;
62709;SDS011;48770;51.624;5.886;2023-06-24T06:15:44;5.83;;;4.27;;
62709;SDS011;48770;51.624;5.886;2023-06-24T06:18:09;4.85;;;3.53;;
62709;SDS011;48770;51.624;5.886;2023-06-24T06:20:34;5.40;;;3.90;;
62709;SDS011;48770;51.624;5.886;2023-06-24T06:23:00;4.05;;;3.65;;
62709;SDS011;48770;51.624;5.886;2023-06-24T06:25:26;4.25;;;3.72;;
62709;SDS011;48770;51.624;5.886;2023-06-24T06:27:51;5.53;;;4.07;;
62709;SDS011;48770;51.624;5.886;2023-06-24T06:30:16;5.60;;;3.97;;
62709;SDS011;48770;51.624;5.886;2023-06-24T06:32:42;5.50;;;4.13;;
62709;SDS011;48770;51.624;5.886;2023-06-24T06:35:08;4.85;;;4.00;;
62709;SDS011;48770;51.624;5.886;2023-06-24T06:37:33;5.88;;;3.90;;
62709;SDS011;48770;51.624;5.886;2023-06-24T06:39:59;5.28;;;3.88;;
62709;SDS011;48770;51.624;5.886;2023-06-24T06:42:24;6.93;;;4.38;;
62709;SDS011;48770;51.624;5.886;2023-06-24T06:44:51;4.50;;;3.72;;
62709;SDS011;48770;51.624;5.886;2023-06-24T06:47:16;6.87;;;4.00;;
62709;SDS011;48770;51.624;5.886;2023-06-24T06:49:41;4.88;;;3.83;;
62709;SDS011;48770;51.624;5.886;2023-06-24T06:52:07;5.72;;;4.13;;
62709;SDS011;48770;51.624;5.886;2023-06-24T06:54:32;7.32;;;4.95;;
62709;SDS011;48770;51.624;5.886;2023-06-24T06:57:01;5.57;;;3.42;;
62709;SDS011;48770;51.624;5.886;2023-06-24T06:59:27;5.40;;;3.72;;
62709;SDS011;48770;51.624;5.886;2023-06-24T07:01:52;5.53;;;3.73;;
62709;SDS011;48770;51.624;5.886;2023-06-24T07:04:18;3.97;;;3.33;;
62709;SDS011;48770;51.624;5.886;2023-06-24T07:06:43;4.90;;;3.47;;
62709;SDS011;48770;51.624;5.886;2023-06-24T07:09:09;4.85;;;3.63;;
62709;SDS011;48770;51.624;5.886;2023-06-24T07:11:34;4.32;;;3.38;;
62709;SDS011;48770;51.624;5.886;2023-06-24T07:13:59;4.67;;;3.97;;
62709;SDS011;48770;51.624;5.886;2023-06-24T07:16:25;5.33;;;3.90;;
62709;SDS011;48770;51.624;5.886;2023-06-24T07:18:50;5.90;;;3.78;;
62709;SDS011;48770;51.624;5.886;2023-06-24T07:21:15;4.88;;;3.85;;
62709;SDS011;48770;51.624;5.886;2023-06-24T07:23:41;7.68;;;3.65;;
62709;SDS011;48770;51.624;5.886;2023-06-24T07:26:06;4.95;;;3.50;;
62709;SDS011;48770;51.624;5.886;2023-06-24T07:28:32;8.45;;;3.58;;
62709;SDS011;48770;51.624;5.886;2023-06-24T07:30:57;6.38;;;4.00;;
62709;SDS011;48770;51.624;5.886;2023-06-24T07:33:22;5.80;;;4.28;;
62709;SDS011;48770;51.624;5.886;2023-06-24T07:35:48;5.97;;;4.40;;
62709;SDS011;48770;51.624;5.886;2023-06-24T07:38:13;6.27;;;4.03;;
62709;SDS011;48770;51.624;5.886;2023-06-24T07:40:38;5.30;;;3.90;;
62709;SDS011;48770;51.624;5.886;2023-06-24T07:43:03;5.87;;;2.97;;
62709;SDS011;48770;51.624;5.886;2023-06-24T07:45:29;4.53;;;2.95;;
62709;SDS011;48770;51.624;5.886;2023-06-24T07:47:54;4.53;;;2.85;;
62709;SDS011;48770;51.624;5.886;2023-06-24T07:50:20;4.22;;;2.30;;
62709;SDS011;48770;51.624;5.886;2023-06-24T07:52:45;3.72;;;2.50;;
62709;SDS011;48770;51.624;5.886;2023-06-24T07:55:11;4.38;;;2.67;;
62709;SDS011;48770;51.624;5.886;2023-06-24T07:57:36;4.75;;;3.10;;
62709;SDS011;48770;51.624;5.886;2023-06-24T08:00:02;2.63;;;2.23;;
62709;SDS011;48770;51.624;5.886;2023-06-24T08:02:28;2.88;;;2.17;;
62709;SDS011;48770;51.624;5.886;2023-06-24T08:04:53;2.90;;;2.60;;
62709;SDS011;48770;51.624;5.886;2023-06-24T08:07:19;4.00;;;2.60;;
62709;SDS011;48770;51.624;5.886;2023-06-24T08:09:44;3.55;;;2.53;;
62709;SDS011;48770;51.624;5.886;2023-06-24T08:12:10;3.60;;;2.80;;
62709;SDS011;48770;51.624;5.886;2023-06-24T08:14:35;3.83;;;2.72;;
62709;SDS011;48770;51.624;5.886;2023-06-24T08:17:01;3.83;;;2.70;;
62709;SDS011;48770;51.624;5.886;2023-06-24T08:19:26;3.40;;;2.40;;
62709;SDS011;48770;51.624;5.886;2023-06-24T08:21:52;3.15;;;2.20;;
62709;SDS011;48770;51.624;5.886;2023-06-24T08:24:18;5.68;;;2.92;;
62709;SDS011;48770;51.624;5.886;2023-06-24T08:26:43;4.95;;;2.80;;
62709;SDS011;48770;51.624;5.886;2023-06-24T08:29:09;3.10;;;2.25;;
62709;SDS011;48770;51.624;5.886;2023-06-24T08:31:34;2.92;;;2.15;;
62709;SDS011;48770;51.624;5.886;2023-06-24T08:33:59;3.10;;;2.03;;
62709;SDS011;48770;51.624;5.886;2023-06-24T08:36:27;4.28;;;2.15;;
62709;SDS011;48770;51.624;5.886;2023-06-24T08:38:54;3.17;;;2.40;;
62709;SDS011;48770;51.624;5.886;2023-06-24T08:41:19;3.13;;;2.50;;
62709;SDS011;48770;51.624;5.886;2023-06-24T08:43:44;4.53;;;2.17;;
62709;SDS011;48770;51.624;5.886;2023-06-24T08:46:10;2.80;;;2.30;;
62709;SDS011;48770;51.624;5.886;2023-06-24T08:48:38;3.25;;;2.20;;
62709;SDS011;48770;51.624;5.886;2023-06-24T08:51:06;2.00;;;1.80;;
62709;SDS011;48770;51.624;5.886;2023-06-24T08:53:33;2.15;;;1.75;;
62709;SDS011;48770;51.624;5.886;2023-06-24T08:55:59;3.50;;;2.38;;
62709;SDS011;48770;51.624;5.886;2023-06-24T08:58:25;2.70;;;2.10;;
62709;SDS011;48770;51.624;5.886;2023-06-24T09:00:50;2.10;;;1.90;;
62709;SDS011;48770;51.624;5.886;2023-06-24T09:03:16;2.85;;;1.98;;
62709;SDS011;48770;51.624;5.886;2023-06-24T09:05:41;3.03;;;1.90;;
62709;SDS011;48770;51.624;5.886;2023-06-24T09:08:06;2.38;;;1.55;;
62709;SDS011;48770;51.624;5.886;2023-06-24T09:10:32;2.27;;;1.80;;
62709;SDS011;48770;51.624;5.886;2023-06-24T09:13:08;1.88;;;1.67;;
62709;SDS011;48770;51.624;5.886;2023-06-24T09:15:34;2.47;;;1.85;;
62709;SDS011;48770;51.624;5.886;2023-06-24T09:18:01;2.35;;;2.00;;
62709;SDS011;48770;51.624;5.886;2023-06-24T09:20:28;4.47;;;2.10;;
62709;SDS011;48770;51.624;5.886;2023-06-24T09:22:58;4.57;;;2.00;;
62709;SDS011;48770;51.624;5.886;2023-06-24T09:25:24;3.03;;;1.98;;
62709;SDS011;48770;51.624;5.886;2023-06-24T09:27:50;3.17;;;1.60;;
62709;SDS011;48770;51.624;5.886;2023-06-24T09:30:20;3.05;;;2.40;;
62709;SDS011;48770;51.624;5.886;2023-06-24T09:32:49;1.48;;;1.38;;
62709;SDS011;48770;51.624;5.886;2023-06-24T09:35:34;2.47;;;1.70;;
62709;SDS011;48770;51.624;5.886;2023-06-24T09:38:01;2.60;;;1.88;;
62709;SDS011;48770;51.624;5.886;2023-06-24T09:40:26;1.95;;;1.70;;
62709;SDS011;48770;51.624;5.886;2023-06-24T09:42:56;2.33;;;1.70;;
62709;SDS011;48770;51.624;5.886;2023-06-24T09:45:28;3.80;;;1.65;;
62709;SDS011;48770;51.624;5.886;2023-06-24T09:47:55;2.00;;;1.80;;
62709;SDS011;48770;51.624;5.886;2023-06-24T09:50:21;2.28;;;1.63;;
62709;SDS011;48770;51.624;5.886;2023-06-24T09:52:47;1.50;;;1.40;;
62709;SDS011;48770;51.624;5.886;2023-06-24T09:55:14;2.55;;;1.75;;
62709;SDS011;48770;51.624;5.886;2023-06-24T09:57:41;2.78;;;1.70;;
62709;SDS011;48770;51.624;5.886;2023-06-24T10:00:10;1.67;;;1.35;;
62709;SDS011;48770;51.624;5.886;2023-06-24T10:02:40;2.10;;;1.80;;
62709;SDS011;48770;51.624;5.886;2023-06-24T10:05:05;2.35;;;1.80;;
62709;SDS011;48770;51.624;5.886;2023-06-24T10:07:32;2.58;;;1.75;;
62709;SDS011;48770;51.624;5.886;2023-06-24T10:10:00;1.75;;;1.65;;
62709;SDS011;48770;51.624;5.886;2023-06-24T10:12:28;1.73;;;1.55;;
62709;SDS011;48770;51.624;5.886;2023-06-24T10:14:53;1.70;;;1.40;;
62709;SDS011;48770;51.624;5.886;2023-06-24T10:17:19;1.70;;;1.60;;
62709;SDS011;48770;51.624;5.886;2023-06-24T10:19:44;1.83;;;1.50;;
62709;SDS011;48770;51.624;5.886;2023-06-24T10:22:10;2.22;;;1.73;;
62709;SDS011;48770;51.624;5.886;2023-06-24T10:24:37;2.83;;;1.70;;
62709;SDS011;48770;51.624;5.886;2023-06-24T10:27:13;2.25;;;1.70;;
62709;SDS011;48770;51.624;5.886;2023-06-24T10:29:44;1.52;;;1.35;;
62709;SDS011;48770;51.624;5.886;2023-06-24T10:32:11;2.15;;;1.77;;
62709;SDS011;48770;51.624;5.886;2023-06-24T10:39:52;1.42;;;1.33;;
62709;SDS011;48770;51.624;5.886;2023-06-24T10:47:35;1.70;;;1.38;;
62709;SDS011;48770;51.624;5.886;2023-06-24T10:50:02;1.88;;;1.70;;
62709;SDS011;48770;51.624;5.886;2023-06-24T10:52:28;1.60;;;1.45;;
62709;SDS011;48770;51.624;5.886;2023-06-24T10:54:53;1.40;;;1.30;;
62709;SDS011;48770;51.624;5.886;2023-06-24T10:57:24;2.40;;;1.48;;
62709;SDS011;48770;51.624;5.886;2023-06-24T10:59:52;1.10;;;1.00;;
62709;SDS011;48770;51.624;5.886;2023-06-24T11:02:19;2.53;;;1.10;;
62709;SDS011;48770;51.624;5.886;2023-06-24T11:04:51;1.50;;;1.40;;
62709;SDS011;48770;51.624;5.886;2023-06-24T11:07:18;1.75;;;1.40;;
62709;SDS011;48770;51.624;5.886;2023-06-24T11:09:51;1.80;;;1.58;;
62709;SDS011;48770;51.624;5.886;2023-06-24T11:12:18;2.97;;;1.40;;
62709;SDS011;48770;51.624;5.886;2023-06-24T11:14:48;1.98;;;1.45;;
62709;SDS011;48770;51.624;5.886;2023-06-24T11:17:13;1.73;;;1.63;;
62709;SDS011;48770;51.624;5.886;2023-06-24T11:19:38;1.60;;;1.50;;
62709;SDS011;48770;51.624;5.886;2023-06-24T11:22:05;1.95;;;1.55;;
62709;SDS011;48770;51.624;5.886;2023-06-24T11:24:31;2.30;;;1.40;;
62709;SDS011;48770;51.624;5.886;2023-06-24T11:26:57;1.73;;;1.55;;
62709;SDS011;48770;51.624;5.886;2023-06-24T11:29:23;1.40;;;1.30;;
62709;SDS011;48770;51.624;5.886;2023-06-24T11:31:48;1.67;;;1.50;;
62709;SDS011;48770;51.624;5.886;2023-06-24T11:34:15;1.33;;;1.23;;
62709;SDS011;48770;51.624;5.886;2023-06-24T11:36:40;1.70;;;1.30;;
62709;SDS011;48770;51.624;5.886;2023-06-24T11:39:06;1.70;;;1.27;;
62709;SDS011;48770;51.624;5.886;2023-06-24T11:41:31;2.15;;;1.33;;
62709;SDS011;48770;51.624;5.886;2023-06-24T11:43:57;2.22;;;1.38;;
62709;SDS011;48770;51.624;5.886;2023-06-24T11:46:27;1.35;;;1.25;;
62709;SDS011;48770;51.624;5.886;2023-06-24T11:49:05;1.65;;;1.35;;
62709;SDS011;48770;51.624;5.886;2023-06-24T11:51:32;1.65;;;1.45;;
62709;SDS011;48770;51.624;5.886;2023-06-24T11:53:59;2.13;;;1.73;;
62709;SDS011;48770;51.624;5.886;2023-06-24T11:56:36;1.73;;;1.42;;
62709;SDS011;48770;51.624;5.886;2023-06-24T11:59:05;1.55;;;1.35;;
62709;SDS011;48770;51.624;5.886;2023-06-24T12:01:44;1.80;;;1.20;;
62709;SDS011;48770;51.624;5.886;2023-06-24T12:04:13;1.50;;;1.40;;
62709;SDS011;48770;51.624;5.886;2023-06-24T12:06:42;1.40;;;1.30;;
62709;SDS011;48770;51.624;5.886;2023-06-24T12:09:08;1.40;;;1.20;;
62709;SDS011;48770;51.624;5.886;2023-06-24T12:11:34;1.65;;;1.38;;
62709;SDS011;48770;51.624;5.886;2023-06-24T12:14:02;1.65;;;1.48;;
62709;SDS011;48770;51.624;5.886;2023-06-24T12:16:28;1.63;;;1.38;;
62709;SDS011;48770;51.624;5.886;2023-06-24T12:18:54;1.70;;;1.40;;
62709;SDS011;48770;51.624;5.886;2023-06-24T12:21:20;4.45;;;1.38;;
62709;SDS011;48770;51.624;5.886;2023-06-24T12:23:45;1.70;;;1.23;;
62709;SDS011;48770;51.624;5.886;2023-06-24T12:26:11;1.83;;;1.40;;
62709;SDS011;48770;51.624;5.886;2023-06-24T12:28:36;1.80;;;1.25;;
62709;SDS011;48770;51.624;5.886;2023-06-24T12:31:02;3.47;;;1.63;;
62709;SDS011;48770;51.624;5.886;2023-06-24T12:33:27;3.15;;;1.30;;
62709;SDS011;48770;51.624;5.886;2023-06-24T12:35:53;1.50;;;1.33;;
62709;SDS011;48770;51.624;5.886;2023-06-24T12:38:18;1.60;;;1.25;;
62709;SDS011;48770;51.624;5.886;2023-06-24T12:40:43;3.05;;;1.60;;
62709;SDS011;48770;51.624;5.886;2023-06-24T12:43:10;1.58;;;1.30;;
62709;SDS011;48770;51.624;5.886;2023-06-24T12:45:35;3.10;;;1.23;;
62709;SDS011;48770;51.624;5.886;2023-06-24T12:48:01;2.42;;;1.20;;
62709;SDS011;48770;51.624;5.886;2023-06-24T12:50:27;2.33;;;1.50;;
62709;SDS011;48770;51.624;5.886;2023-06-24T12:52:53;1.65;;;1.52;;
62709;SDS011;48770;51.624;5.886;2023-06-24T12:55:18;1.35;;;1.25;;
62709;SDS011;48770;51.624;5.886;2023-06-24T12:57:44;1.65;;;1.30;;
62709;SDS011;48770;51.624;5.886;2023-06-24T13:00:09;1.80;;;1.00;;
62709;SDS011;48770;51.624;5.886;2023-06-24T13:02:36;1.10;;;1.00;;
62709;SDS011;48770;51.624;5.886;2023-06-24T13:05:04;1.60;;;1.20;;
62709;SDS011;48770;51.624;5.886;2023-06-24T13:07:30;1.30;;;1.20;;
62709;SDS011;48770;51.624;5.886;2023-06-24T13:09:56;1.10;;;1.00;;
62709;SDS011;48770;51.624;5.886;2023-06-24T13:12:21;1.80;;;1.45;;
62709;SDS011;48770;51.624;5.886;2023-06-24T13:14:47;1.35;;;1.20;;
62709;SDS011;48770;51.624;5.886;2023-06-24T13:17:13;1.20;;;1.10;;
62709;SDS011;48770;51.624;5.886;2023-06-24T13:19:38;1.25;;;1.15;;
62709;SDS011;48770;51.624;5.886;2023-06-24T13:22:04;1.60;;;1.20;;
62709;SDS011;48770;51.624;5.886;2023-06-24T13:24:29;1.23;;;1.08;;
62709;SDS011;48770;51.624;5.886;2023-06-24T13:26:55;1.77;;;1.27;;
62709;SDS011;48770;51.624;5.886;2023-06-24T13:29:20;1.35;;;1.23;;
62709;SDS011;48770;51.624;5.886;2023-06-24T13:31:46;2.80;;;1.38;;
62709;SDS011;48770;51.624;5.886;2023-06-24T13:34:11;1.23;;;1.00;;
62709;SDS011;48770;51.624;5.886;2023-06-24T13:36:37;1.50;;;1.40;;
62709;SDS011;48770;51.624;5.886;2023-06-24T13:39:04;1.63;;;1.40;;
62709;SDS011;48770;51.624;5.886;2023-06-24T13:41:31;1.00;;;0.93;;
62709;SDS011;48770;51.624;5.886;2023-06-24T13:44:03;1.48;;;1.08;;
62709;SDS011;48770;51.624;5.886;2023-06-24T13:46:29;1.13;;;1.00;;
62709;SDS011;48770;51.624;5.886;2023-06-24T13:48:56;1.55;;;1.08;;
62709;SDS011;48770;51.624;5.886;2023-06-24T13:51:22;1.20;;;1.02;;
62709;SDS011;48770;51.624;5.886;2023-06-24T13:53:49;3.50;;;1.30;;
62709;SDS011;48770;51.624;5.886;2023-06-24T13:56:16;1.83;;;1.20;;
62709;SDS011;48770;51.624;5.886;2023-06-24T13:58:41;1.10;;;1.00;;
62709;SDS011;48770;51.624;5.886;2023-06-24T14:01:07;1.10;;;1.00;;
62709;SDS011;48770;51.624;5.886;2023-06-24T14:03:33;1.27;;;1.17;;
62709;SDS011;48770;51.624;5.886;2023-06-24T14:05:58;2.65;;;1.30;;
62709;SDS011;48770;51.624;5.886;2023-06-24T14:08:26;1.83;;;1.05;;
62709;SDS011;48770;51.624;5.886;2023-06-24T14:10:52;1.60;;;1.20;;
62709;SDS011;48770;51.624;5.886;2023-06-24T14:13:17;1.83;;;1.15;;
62709;SDS011;48770;51.624;5.886;2023-06-24T14:15:42;1.52;;;1.20;;
62709;SDS011;48770;51.624;5.886;2023-06-24T14:18:09;1.27;;;1.05;;
62709;SDS011;48770;51.624;5.886;2023-06-24T14:20:34;1.23;;;1.10;;
62709;SDS011;48770;51.624;5.886;2023-06-24T14:23:00;0.98;;;0.98;;
62709;SDS011;48770;51.624;5.886;2023-06-24T14:25:25;2.60;;;1.02;;
62709;SDS011;48770;51.624;5.886;2023-06-24T14:27:51;1.13;;;0.95;;
62709;SDS011;48770;51.624;5.886;2023-06-24T14:30:16;1.10;;;1.00;;
62709;SDS011;48770;51.624;5.886;2023-06-24T14:32:41;1.63;;;1.00;;
62709;SDS011;48770;51.624;5.886;2023-06-24T14:35:07;1.25;;;1.15;;
62709;SDS011;48770;51.624;5.886;2023-06-24T14:37:33;1.60;;;1.30;;
62709;SDS011;48770;51.624;5.886;2023-06-24T14:39:58;1.05;;;0.95;;
62709;SDS011;48770;51.624;5.886;2023-06-24T14:42:23;1.08;;;0.98;;
62709;SDS011;48770;51.624;5.886;2023-06-24T14:44:49;1.05;;;0.95;;
62709;SDS011;48770;51.624;5.886;2023-06-24T14:47:14;1.50;;;1.00;;
62709;SDS011;48770;51.624;5.886;2023-06-24T14:49:39;1.20;;;1.10;;
62709;SDS011;48770;51.624;5.886;2023-06-24T14:52:05;1.10;;;1.00;;
62709;SDS011;48770;51.624;5.886;2023-06-24T14:54:30;1.05;;;0.95;;
62709;SDS011;48770;51.624;5.886;2023-06-24T14:56:55;1.10;;;1.00;;
62709;SDS011;48770;51.624;5.886;2023-06-24T14:59:21;1.23;;;1.10;;
62709;SDS011;48770;51.624;5.886;2023-06-24T15:01:46;2.75;;;1.10;;
62709;SDS011;48770;51.624;5.886;2023-06-24T15:04:12;0.82;;;0.82;;